sensor_id;sensor_type;location;lat;lon;timestamp;P1;durP1;ratioP1;P2;durP2;ratioP2
21266;SDS011;10791;53.108;18.326;2024-02-21T00:02:38;16.13;;;4.40;;
21266;SDS011;10791;53.108;18.326;2024-02-21T00:07:41;6.53;;;3.70;;
21266;SDS011;10791;53.108;18.326;2024-02-21T00:12:44;9.60;;;3.40;;
21266;SDS011;10791;53.108;18.326;2024-02-21T00:17:47;11.47;;;3.20;;
21266;SDS011;10791;53.108;18.326;2024-02-21T00:22:51;10.30;;;3.17;;
21266;SDS011;10791;53.108;18.326;2024-02-21T00:27:54;7.60;;;2.83;;
21266;SDS011;10791;53.108;18.326;2024-02-21T00:32:57;12.97;;;3.53;;
21266;SDS011;10791;53.108;18.326;2024-02-21T00:38:00;10.37;;;4.07;;
21266;SDS011;10791;53.108;18.326;2024-02-21T00:43:05;12.13;;;3.07;;
21266;SDS011;10791;53.108;18.326;2024-02-21T00:48:09;6.37;;;3.03;;
21266;SDS011;10791;53.108;18.326;2024-02-21T00:53:12;7.70;;;3.30;;
21266;SDS011;10791;53.108;18.326;2024-02-21T00:58:15;6.80;;;3.43;;
21266;SDS011;10791;53.108;18.326;2024-02-21T01:03:18;13.83;;;3.57;;
21266;SDS011;10791;53.108;18.326;2024-02-21T01:08:21;14.27;;;3.67;;
21266;SDS011;10791;53.108;18.326;2024-02-21T01:13:24;7.73;;;2.97;;
21266;SDS011;10791;53.108;18.326;2024-02-21T01:18:27;7.27;;;3.53;;
21266;SDS011;10791;53.108;18.326;2024-02-21T01:23:30;7.83;;;3.30;;
21266;SDS011;10791;53.108;18.326;2024-02-21T01:28:34;10.70;;;4.17;;
21266;SDS011;10791;53.108;18.326;2024-02-21T01:33:38;6.70;;;3.50;;
21266;SDS011;10791;53.108;18.326;2024-02-21T01:38:41;10.30;;;3.20;;
21266;SDS011;10791;53.108;18.326;2024-02-21T01:43:44;11.20;;;3.90;;
21266;SDS011;10791;53.108;18.326;2024-02-21T01:48:47;10.53;;;3.63;;
21266;SDS011;10791;53.108;18.326;2024-02-21T01:53:51;13.23;;;3.53;;
21266;SDS011;10791;53.108;18.326;2024-02-21T01:58:55;8.50;;;2.77;;
21266;SDS011;10791;53.108;18.326;2024-02-21T02:03:59;6.57;;;3.40;;
21266;SDS011;10791;53.108;18.326;2024-02-21T02:09:02;13.90;;;3.57;;
21266;SDS011;10791;53.108;18.326;2024-02-21T02:14:05;7.73;;;3.90;;
21266;SDS011;10791;53.108;18.326;2024-02-21T02:19:08;11.80;;;3.47;;
21266;SDS011;10791;53.108;18.326;2024-02-21T02:24:14;9.73;;;3.57;;
21266;SDS011;10791;53.108;18.326;2024-02-21T02:29:18;12.90;;;3.20;;
21266;SDS011;10791;53.108;18.326;2024-02-21T02:34:21;8.00;;;3.67;;
21266;SDS011;10791;53.108;18.326;2024-02-21T02:39:24;9.00;;;3.83;;
21266;SDS011;10791;53.108;18.326;2024-02-21T02:44:27;8.63;;;3.40;;
21266;SDS011;10791;53.108;18.326;2024-02-21T02:49:31;8.53;;;3.67;;
21266;SDS011;10791;53.108;18.326;2024-02-21T02:54:34;14.60;;;4.73;;
21266;SDS011;10791;53.108;18.326;2024-02-21T02:59:38;14.63;;;4.20;;
21266;SDS011;10791;53.108;18.326;2024-02-21T03:04:41;9.23;;;4.27;;
21266;SDS011;10791;53.108;18.326;2024-02-21T03:09:44;11.00;;;3.57;;
21266;SDS011;10791;53.108;18.326;2024-02-21T03:14:47;13.13;;;3.47;;
21266;SDS011;10791;53.108;18.326;2024-02-21T03:19:50;14.63;;;4.23;;
21266;SDS011;10791;53.108;18.326;2024-02-21T03:24:55;10.53;;;4.67;;
21266;SDS011;10791;53.108;18.326;2024-02-21T03:29:58;13.87;;;3.53;;
21266;SDS011;10791;53.108;18.326;2024-02-21T03:35:01;13.50;;;3.57;;
21266;SDS011;10791;53.108;18.326;2024-02-21T03:40:08;10.63;;;3.93;;
21266;SDS011;10791;53.108;18.326;2024-02-21T03:45:12;16.60;;;5.30;;
21266;SDS011;10791;53.108;18.326;2024-02-21T03:50:15;15.77;;;4.53;;
21266;SDS011;10791;53.108;18.326;2024-02-21T03:55:18;11.00;;;4.60;;
21266;SDS011;10791;53.108;18.326;2024-02-21T04:00:21;17.70;;;4.60;;
21266;SDS011;10791;53.108;18.326;2024-02-21T04:05:25;13.43;;;5.30;;
21266;SDS011;10791;53.108;18.326;2024-02-21T04:10:29;12.27;;;4.73;;
21266;SDS011;10791;53.108;18.326;2024-02-21T04:15:32;8.37;;;4.03;;
21266;SDS011;10791;53.108;18.326;2024-02-21T04:20:34;9.13;;;4.37;;
21266;SDS011;10791;53.108;18.326;2024-02-21T04:25:38;11.63;;;5.93;;
21266;SDS011;10791;53.108;18.326;2024-02-21T04:30:41;7.30;;;4.17;;
21266;SDS011;10791;53.108;18.326;2024-02-21T04:35:44;12.87;;;4.53;;
21266;SDS011;10791;53.108;18.326;2024-02-21T04:40:47;10.17;;;3.73;;
21266;SDS011;10791;53.108;18.326;2024-02-21T04:45:51;12.43;;;4.27;;
21266;SDS011;10791;53.108;18.326;2024-02-21T04:50:55;9.77;;;4.30;;
21266;SDS011;10791;53.108;18.326;2024-02-21T04:55:58;13.57;;;4.23;;
21266;SDS011;10791;53.108;18.326;2024-02-21T05:01:02;9.47;;;4.07;;
21266;SDS011;10791;53.108;18.326;2024-02-21T05:06:05;12.27;;;4.77;;
21266;SDS011;10791;53.108;18.326;2024-02-21T05:11:08;11.83;;;4.37;;
21266;SDS011;10791;53.108;18.326;2024-02-21T05:16:11;8.37;;;4.27;;
21266;SDS011;10791;53.108;18.326;2024-02-21T05:21:14;11.17;;;4.87;;
21266;SDS011;10791;53.108;18.326;2024-02-21T05:26:24;9.57;;;4.30;;
21266;SDS011;10791;53.108;18.326;2024-02-21T05:31:42;12.30;;;3.53;;
21266;SDS011;10791;53.108;18.326;2024-02-21T05:37:05;10.37;;;4.13;;
21266;SDS011;10791;53.108;18.326;2024-02-21T05:42:08;10.60;;;3.57;;
21266;SDS011;10791;53.108;18.326;2024-02-21T05:47:11;7.43;;;3.57;;
21266;SDS011;10791;53.108;18.326;2024-02-21T05:52:17;5.13;;;3.20;;
21266;SDS011;10791;53.108;18.326;2024-02-21T05:57:20;9.07;;;4.07;;
21266;SDS011;10791;53.108;18.326;2024-02-21T06:02:23;12.87;;;4.57;;
21266;SDS011;10791;53.108;18.326;2024-02-21T06:07:26;14.17;;;4.47;;
21266;SDS011;10791;53.108;18.326;2024-02-21T06:12:30;12.57;;;4.40;;
21266;SDS011;10791;53.108;18.326;2024-02-21T06:17:33;6.73;;;3.97;;
21266;SDS011;10791;53.108;18.326;2024-02-21T06:22:36;9.23;;;4.67;;
21266;SDS011;10791;53.108;18.326;2024-02-21T06:27:39;14.63;;;5.80;;
21266;SDS011;10791;53.108;18.326;2024-02-21T06:32:42;14.10;;;5.00;;
21266;SDS011;10791;53.108;18.326;2024-02-21T06:37:45;14.57;;;6.33;;
21266;SDS011;10791;53.108;18.326;2024-02-21T06:42:53;18.43;;;4.60;;
21266;SDS011;10791;53.108;18.326;2024-02-21T06:47:56;13.70;;;4.97;;
21266;SDS011;10791;53.108;18.326;2024-02-21T06:52:59;19.50;;;4.77;;
21266;SDS011;10791;53.108;18.326;2024-02-21T06:58:02;10.27;;;4.40;;
21266;SDS011;10791;53.108;18.326;2024-02-21T07:03:05;10.97;;;4.37;;
21266;SDS011;10791;53.108;18.326;2024-02-21T07:08:08;8.33;;;3.50;;
21266;SDS011;10791;53.108;18.326;2024-02-21T07:13:11;15.47;;;4.60;;
21266;SDS011;10791;53.108;18.326;2024-02-21T07:18:15;15.50;;;5.73;;
21266;SDS011;10791;53.108;18.326;2024-02-21T07:23:19;10.07;;;4.33;;
21266;SDS011;10791;53.108;18.326;2024-02-21T07:28:22;12.37;;;6.57;;
21266;SDS011;10791;53.108;18.326;2024-02-21T07:33:25;19.40;;;6.10;;
21266;SDS011;10791;53.108;18.326;2024-02-21T07:38:28;15.87;;;4.87;;
21266;SDS011;10791;53.108;18.326;2024-02-21T07:43:31;13.03;;;5.60;;
21266;SDS011;10791;53.108;18.326;2024-02-21T07:48:34;18.30;;;5.50;;
21266;SDS011;10791;53.108;18.326;2024-02-21T07:53:40;11.50;;;5.70;;
21266;SDS011;10791;53.108;18.326;2024-02-21T07:58:47;12.03;;;5.27;;
21266;SDS011;10791;53.108;18.326;2024-02-21T08:03:50;14.37;;;5.77;;
21266;SDS011;10791;53.108;18.326;2024-02-21T08:08:53;13.43;;;5.83;;
21266;SDS011;10791;53.108;18.326;2024-02-21T08:13:56;21.37;;;6.10;;
21266;SDS011;10791;53.108;18.326;2024-02-21T08:19:00;14.83;;;5.50;;
21266;SDS011;10791;53.108;18.326;2024-02-21T08:24:05;19.47;;;6.73;;
21266;SDS011;10791;53.108;18.326;2024-02-21T08:29:08;14.17;;;5.23;;
21266;SDS011;10791;53.108;18.326;2024-02-21T08:34:11;16.43;;;6.10;;
21266;SDS011;10791;53.108;18.326;2024-02-21T08:39:16;12.40;;;6.70;;
21266;SDS011;10791;53.108;18.326;2024-02-21T08:44:19;11.83;;;4.80;;
21266;SDS011;10791;53.108;18.326;2024-02-21T08:49:22;16.07;;;5.40;;
21266;SDS011;10791;53.108;18.326;2024-02-21T08:54:27;12.67;;;4.90;;
21266;SDS011;10791;53.108;18.326;2024-02-21T08:59:30;12.03;;;5.03;;
21266;SDS011;10791;53.108;18.326;2024-02-21T09:04:34;16.20;;;5.63;;
21266;SDS011;10791;53.108;18.326;2024-02-21T09:09:37;14.07;;;6.77;;
21266;SDS011;10791;53.108;18.326;2024-02-21T09:14:42;16.53;;;5.87;;
21266;SDS011;10791;53.108;18.326;2024-02-21T09:19:44;12.07;;;6.90;;
21266;SDS011;10791;53.108;18.326;2024-02-21T09:24:48;12.83;;;6.07;;
21266;SDS011;10791;53.108;18.326;2024-02-21T09:29:51;16.10;;;6.50;;
21266;SDS011;10791;53.108;18.326;2024-02-21T09:34:54;16.30;;;6.37;;
21266;SDS011;10791;53.108;18.326;2024-02-21T09:40:03;13.97;;;5.90;;
21266;SDS011;10791;53.108;18.326;2024-02-21T09:45:19;15.27;;;6.93;;
21266;SDS011;10791;53.108;18.326;2024-02-21T09:50:26;22.77;;;7.83;;
21266;SDS011;10791;53.108;18.326;2024-02-21T09:55:31;13.13;;;6.57;;
21266;SDS011;10791;53.108;18.326;2024-02-21T10:00:37;13.27;;;5.97;;
21266;SDS011;10791;53.108;18.326;2024-02-21T10:05:45;11.53;;;5.13;;
21266;SDS011;10791;53.108;18.326;2024-02-21T10:10:55;16.27;;;6.70;;
21266;SDS011;10791;53.108;18.326;2024-02-21T10:16:02;14.73;;;6.47;;
21266;SDS011;10791;53.108;18.326;2024-02-21T10:21:08;11.17;;;5.63;;
21266;SDS011;10791;53.108;18.326;2024-02-21T10:26:11;12.80;;;6.43;;
21266;SDS011;10791;53.108;18.326;2024-02-21T10:31:22;11.47;;;6.10;;
21266;SDS011;10791;53.108;18.326;2024-02-21T10:36:31;17.27;;;6.27;;
21266;SDS011;10791;53.108;18.326;2024-02-21T10:41:34;9.20;;;5.60;;
21266;SDS011;10791;53.108;18.326;2024-02-21T10:46:40;7.67;;;4.83;;
21266;SDS011;10791;53.108;18.326;2024-02-21T10:51:45;10.40;;;5.00;;
21266;SDS011;10791;53.108;18.326;2024-02-21T10:56:49;13.90;;;5.23;;
21266;SDS011;10791;53.108;18.326;2024-02-21T11:01:53;10.40;;;5.53;;
21266;SDS011;10791;53.108;18.326;2024-02-21T11:07:00;9.73;;;4.90;;
21266;SDS011;10791;53.108;18.326;2024-02-21T11:12:11;11.83;;;6.93;;
21266;SDS011;10791;53.108;18.326;2024-02-21T11:17:17;12.33;;;5.87;;
21266;SDS011;10791;53.108;18.326;2024-02-21T11:22:21;8.53;;;5.37;;
21266;SDS011;10791;53.108;18.326;2024-02-21T11:27:27;14.93;;;5.80;;
21266;SDS011;10791;53.108;18.326;2024-02-21T11:32:30;11.60;;;5.53;;
21266;SDS011;10791;53.108;18.326;2024-02-21T11:37:34;12.27;;;5.03;;
21266;SDS011;10791;53.108;18.326;2024-02-21T11:42:42;9.57;;;5.30;;
21266;SDS011;10791;53.108;18.326;2024-02-21T11:47:45;13.17;;;6.17;;
21266;SDS011;10791;53.108;18.326;2024-02-21T11:52:49;10.77;;;5.80;;
21266;SDS011;10791;53.108;18.326;2024-02-21T11:57:52;9.20;;;5.23;;
21266;SDS011;10791;53.108;18.326;2024-02-21T12:02:55;9.23;;;5.33;;
21266;SDS011;10791;53.108;18.326;2024-02-21T12:08:04;14.53;;;6.70;;
21266;SDS011;10791;53.108;18.326;2024-02-21T12:13:08;10.77;;;5.90;;
21266;SDS011;10791;53.108;18.326;2024-02-21T12:18:11;12.17;;;5.83;;
21266;SDS011;10791;53.108;18.326;2024-02-21T12:23:15;13.33;;;5.77;;
21266;SDS011;10791;53.108;18.326;2024-02-21T12:28:20;11.63;;;6.07;;
21266;SDS011;10791;53.108;18.326;2024-02-21T12:33:25;11.10;;;6.17;;
21266;SDS011;10791;53.108;18.326;2024-02-21T12:38:28;10.63;;;4.73;;
21266;SDS011;10791;53.108;18.326;2024-02-21T12:43:32;12.33;;;6.10;;
21266;SDS011;10791;53.108;18.326;2024-02-21T12:48:36;14.23;;;6.40;;
21266;SDS011;10791;53.108;18.326;2024-02-21T12:53:39;12.73;;;5.90;;
21266;SDS011;10791;53.108;18.326;2024-02-21T12:58:43;15.20;;;6.30;;
21266;SDS011;10791;53.108;18.326;2024-02-21T13:03:47;14.37;;;5.53;;
21266;SDS011;10791;53.108;18.326;2024-02-21T13:08:50;12.27;;;6.63;;
21266;SDS011;10791;53.108;18.326;2024-02-21T13:13:53;15.67;;;6.20;;
21266;SDS011;10791;53.108;18.326;2024-02-21T13:18:59;11.83;;;6.30;;
21266;SDS011;10791;53.108;18.326;2024-02-21T13:24:02;13.50;;;5.20;;
21266;SDS011;10791;53.108;18.326;2024-02-21T13:29:06;12.37;;;6.33;;
21266;SDS011;10791;53.108;18.326;2024-02-21T13:34:09;10.87;;;6.07;;
21266;SDS011;10791;53.108;18.326;2024-02-21T13:39:13;11.47;;;5.30;;
21266;SDS011;10791;53.108;18.326;2024-02-21T13:44:18;14.07;;;5.33;;
21266;SDS011;10791;53.108;18.326;2024-02-21T13:49:22;13.10;;;5.60;;
21266;SDS011;10791;53.108;18.326;2024-02-21T13:54:25;8.50;;;5.47;;
21266;SDS011;10791;53.108;18.326;2024-02-21T13:59:28;7.97;;;4.77;;
21266;SDS011;10791;53.108;18.326;2024-02-21T14:04:32;10.23;;;5.17;;
21266;SDS011;10791;53.108;18.326;2024-02-21T14:09:36;9.53;;;5.17;;
21266;SDS011;10791;53.108;18.326;2024-02-21T14:14:39;14.03;;;5.80;;
21266;SDS011;10791;53.108;18.326;2024-02-21T14:19:43;13.87;;;6.17;;
21266;SDS011;10791;53.108;18.326;2024-02-21T14:24:47;8.83;;;5.50;;
21266;SDS011;10791;53.108;18.326;2024-02-21T14:29:51;12.87;;;5.50;;
21266;SDS011;10791;53.108;18.326;2024-02-21T14:34:55;18.20;;;5.90;;
21266;SDS011;10791;53.108;18.326;2024-02-21T14:40:02;12.13;;;6.20;;
21266;SDS011;10791;53.108;18.326;2024-02-21T14:45:06;10.53;;;5.67;;
21266;SDS011;10791;53.108;18.326;2024-02-21T14:50:09;10.00;;;5.73;;
21266;SDS011;10791;53.108;18.326;2024-02-21T14:55:13;11.97;;;5.80;;
21266;SDS011;10791;53.108;18.326;2024-02-21T15:00:17;11.90;;;5.13;;
21266;SDS011;10791;53.108;18.326;2024-02-21T15:05:20;10.70;;;5.40;;
21266;SDS011;10791;53.108;18.326;2024-02-21T15:10:24;11.13;;;4.77;;
21266;SDS011;10791;53.108;18.326;2024-02-21T15:15:27;11.50;;;5.27;;
21266;SDS011;10791;53.108;18.326;2024-02-21T15:20:31;13.20;;;6.30;;
21266;SDS011;10791;53.108;18.326;2024-02-21T15:25:34;12.87;;;5.80;;
21266;SDS011;10791;53.108;18.326;2024-02-21T15:30:37;16.37;;;6.80;;
21266;SDS011;10791;53.108;18.326;2024-02-21T15:35:40;11.07;;;5.03;;
21266;SDS011;10791;53.108;18.326;2024-02-21T15:40:44;13.13;;;5.57;;
21266;SDS011;10791;53.108;18.326;2024-02-21T15:45:47;12.63;;;5.83;;
21266;SDS011;10791;53.108;18.326;2024-02-21T15:50:50;15.20;;;5.57;;
21266;SDS011;10791;53.108;18.326;2024-02-21T15:55:53;11.37;;;5.50;;
21266;SDS011;10791;53.108;18.326;2024-02-21T16:00:57;11.53;;;5.17;;
21266;SDS011;10791;53.108;18.326;2024-02-21T16:06:01;13.80;;;7.30;;
21266;SDS011;10791;53.108;18.326;2024-02-21T16:11:05;15.27;;;6.13;;
21266;SDS011;10791;53.108;18.326;2024-02-21T16:16:09;10.90;;;6.03;;
21266;SDS011;10791;53.108;18.326;2024-02-21T16:21:13;17.60;;;6.47;;
21266;SDS011;10791;53.108;18.326;2024-02-21T16:26:19;21.43;;;8.27;;
21266;SDS011;10791;53.108;18.326;2024-02-21T16:31:22;11.40;;;6.40;;
21266;SDS011;10791;53.108;18.326;2024-02-21T16:36:25;10.47;;;6.13;;
21266;SDS011;10791;53.108;18.326;2024-02-21T16:41:28;15.53;;;7.53;;
21266;SDS011;10791;53.108;18.326;2024-02-21T16:46:31;22.20;;;7.20;;
21266;SDS011;10791;53.108;18.326;2024-02-21T16:51:34;24.23;;;8.17;;
21266;SDS011;10791;53.108;18.326;2024-02-21T16:56:37;15.03;;;6.00;;
21266;SDS011;10791;53.108;18.326;2024-02-21T17:01:40;19.23;;;6.77;;
21266;SDS011;10791;53.108;18.326;2024-02-21T17:06:43;13.60;;;6.73;;
21266;SDS011;10791;53.108;18.326;2024-02-21T17:11:46;22.53;;;9.00;;
21266;SDS011;10791;53.108;18.326;2024-02-21T17:16:50;20.33;;;6.83;;
21266;SDS011;10791;53.108;18.326;2024-02-21T17:21:53;16.10;;;7.07;;
21266;SDS011;10791;53.108;18.326;2024-02-21T17:26:56;18.37;;;6.60;;
21266;SDS011;10791;53.108;18.326;2024-02-21T17:31:59;13.47;;;6.77;;
21266;SDS011;10791;53.108;18.326;2024-02-21T17:37:02;11.83;;;6.30;;
21266;SDS011;10791;53.108;18.326;2024-02-21T17:42:06;18.63;;;7.77;;
21266;SDS011;10791;53.108;18.326;2024-02-21T17:47:09;12.13;;;6.07;;
21266;SDS011;10791;53.108;18.326;2024-02-21T17:52:13;18.07;;;7.50;;
21266;SDS011;10791;53.108;18.326;2024-02-21T17:57:16;14.97;;;6.03;;
21266;SDS011;10791;53.108;18.326;2024-02-21T18:02:20;12.57;;;6.47;;
21266;SDS011;10791;53.108;18.326;2024-02-21T18:07:27;12.27;;;6.70;;
21266;SDS011;10791;53.108;18.326;2024-02-21T18:12:30;13.70;;;6.30;;
21266;SDS011;10791;53.108;18.326;2024-02-21T18:17:34;12.83;;;6.23;;
21266;SDS011;10791;53.108;18.326;2024-02-21T18:22:38;15.80;;;6.63;;
21266;SDS011;10791;53.108;18.326;2024-02-21T18:27:41;15.67;;;7.47;;
21266;SDS011;10791;53.108;18.326;2024-02-21T18:32:44;21.07;;;6.50;;
21266;SDS011;10791;53.108;18.326;2024-02-21T18:37:48;13.47;;;6.70;;
21266;SDS011;10791;53.108;18.326;2024-02-21T18:42:51;14.13;;;6.37;;
21266;SDS011;10791;53.108;18.326;2024-02-21T18:47:55;9.10;;;5.73;;
21266;SDS011;10791;53.108;18.326;2024-02-21T18:52:59;15.70;;;6.70;;
21266;SDS011;10791;53.108;18.326;2024-02-21T18:58:02;11.20;;;5.93;;
21266;SDS011;10791;53.108;18.326;2024-02-21T19:03:05;11.73;;;5.73;;
21266;SDS011;10791;53.108;18.326;2024-02-21T19:08:09;12.30;;;6.83;;
21266;SDS011;10791;53.108;18.326;2024-02-21T19:13:16;10.13;;;4.77;;
21266;SDS011;10791;53.108;18.326;2024-02-21T19:18:23;19.93;;;5.90;;
21266;SDS011;10791;53.108;18.326;2024-02-21T19:23:27;14.27;;;5.73;;
21266;SDS011;10791;53.108;18.326;2024-02-21T19:28:30;14.77;;;5.63;;
21266;SDS011;10791;53.108;18.326;2024-02-21T19:33:37;13.37;;;5.23;;
21266;SDS011;10791;53.108;18.326;2024-02-21T19:38:42;13.13;;;5.37;;
21266;SDS011;10791;53.108;18.326;2024-02-21T19:43:46;8.17;;;5.13;;
21266;SDS011;10791;53.108;18.326;2024-02-21T19:48:49;16.07;;;6.67;;
21266;SDS011;10791;53.108;18.326;2024-02-21T19:53:52;13.87;;;7.50;;
21266;SDS011;10791;53.108;18.326;2024-02-21T19:59:16;13.77;;;6.20;;
21266;SDS011;10791;53.108;18.326;2024-02-21T20:04:20;15.27;;;6.70;;
21266;SDS011;10791;53.108;18.326;2024-02-21T20:09:26;15.83;;;6.80;;
21266;SDS011;10791;53.108;18.326;2024-02-21T20:14:30;14.97;;;6.30;;
21266;SDS011;10791;53.108;18.326;2024-02-21T20:19:34;17.53;;;7.80;;
21266;SDS011;10791;53.108;18.326;2024-02-21T20:24:40;12.83;;;7.13;;
21266;SDS011;10791;53.108;18.326;2024-02-21T20:29:43;15.53;;;6.53;;
21266;SDS011;10791;53.108;18.326;2024-02-21T20:34:47;14.53;;;7.20;;
21266;SDS011;10791;53.108;18.326;2024-02-21T20:39:50;17.63;;;7.80;;
21266;SDS011;10791;53.108;18.326;2024-02-21T20:44:54;17.63;;;8.13;;
21266;SDS011;10791;53.108;18.326;2024-02-21T20:49:57;16.37;;;7.37;;
21266;SDS011;10791;53.108;18.326;2024-02-21T20:55:01;14.73;;;6.67;;
21266;SDS011;10791;53.108;18.326;2024-02-21T21:00:08;16.23;;;7.20;;
21266;SDS011;10791;53.108;18.326;2024-02-21T21:05:14;12.90;;;7.20;;
21266;SDS011;10791;53.108;18.326;2024-02-21T21:10:21;14.60;;;7.23;;
21266;SDS011;10791;53.108;18.326;2024-02-21T21:15:26;17.43;;;7.90;;
21266;SDS011;10791;53.108;18.326;2024-02-21T21:20:31;17.80;;;7.03;;
21266;SDS011;10791;53.108;18.326;2024-02-21T21:25:34;14.30;;;7.60;;
21266;SDS011;10791;53.108;18.326;2024-02-21T21:30:39;16.63;;;6.73;;
21266;SDS011;10791;53.108;18.326;2024-02-21T21:35:43;14.07;;;7.33;;
21266;SDS011;10791;53.108;18.326;2024-02-21T21:40:46;20.67;;;7.10;;
21266;SDS011;10791;53.108;18.326;2024-02-21T21:45:50;14.03;;;6.53;;
21266;SDS011;10791;53.108;18.326;2024-02-21T21:50:52;17.93;;;8.00;;
21266;SDS011;10791;53.108;18.326;2024-02-21T21:55:56;19.50;;;8.27;;
21266;SDS011;10791;53.108;18.326;2024-02-21T22:00:59;16.43;;;7.53;;
21266;SDS011;10791;53.108;18.326;2024-02-21T22:06:03;21.60;;;7.47;;
21266;SDS011;10791;53.108;18.326;2024-02-21T22:11:06;16.53;;;8.07;;
21266;SDS011;10791;53.108;18.326;2024-02-21T22:16:12;21.27;;;8.73;;
21266;SDS011;10791;53.108;18.326;2024-02-21T22:21:15;19.47;;;8.47;;
21266;SDS011;10791;53.108;18.326;2024-02-21T22:26:19;21.87;;;8.27;;
21266;SDS011;10791;53.108;18.326;2024-02-21T22:31:22;20.83;;;8.47;;
21266;SDS011;10791;53.108;18.326;2024-02-21T22:36:25;19.27;;;9.00;;
21266;SDS011;10791;53.108;18.326;2024-02-21T22:41:28;21.47;;;8.60;;
21266;SDS011;10791;53.108;18.326;2024-02-21T22:46:32;16.67;;;7.87;;
21266;SDS011;10791;53.108;18.326;2024-02-21T22:51:36;13.70;;;7.10;;
21266;SDS011;10791;53.108;18.326;2024-02-21T22:56:39;14.00;;;7.73;;
21266;SDS011;10791;53.108;18.326;2024-02-21T23:01:42;18.93;;;9.13;;
21266;SDS011;10791;53.108;18.326;2024-02-21T23:06:45;20.33;;;8.40;;
21266;SDS011;10791;53.108;18.326;2024-02-21T23:11:48;17.97;;;8.80;;
21266;SDS011;10791;53.108;18.326;2024-02-21T23:16:52;15.10;;;7.63;;
21266;SDS011;10791;53.108;18.326;2024-02-21T23:21:55;21.13;;;7.60;;
21266;SDS011;10791;53.108;18.326;2024-02-21T23:26:58;15.47;;;8.10;;
21266;SDS011;10791;53.108;18.326;2024-02-21T23:32:01;13.40;;;7.30;;
21266;SDS011;10791;53.108;18.326;2024-02-21T23:37:04;11.73;;;6.10;;
21266;SDS011;10791;53.108;18.326;2024-02-21T23:42:08;16.97;;;8.73;;
21266;SDS011;10791;53.108;18.326;2024-02-21T23:47:11;16.57;;;8.40;;
21266;SDS011;10791;53.108;18.326;2024-02-21T23:52:14;15.87;;;6.97;;
21266;SDS011;10791;53.108;18.326;2024-02-21T23:57:17;15.33;;;6.83;;
